Time,TemperatureF,DewpointF,PressureIn,WindDirection,WindDirectionDegrees,WindSpeedMPH,WindSpeedGustMPH,Humidity,HourlyPrecipIn,Conditions,Clouds,dailyrainin,SoftwareType,DateUTC
2013-05-25 00:13:00,41.9,16.3,29.90,ENE,67,1.7,-999.0,35,-99.99,,,0.00,Acu-Link.com,2013-05-25 06:13:00,
2013-05-25 00:28:00,43.0,15.9,29.90,ENE,67,1.1,-999.0,33,-99.99,,,0.00,Acu-Link.com,2013-05-25 06:28:00,
2013-05-25 00:43:00,41.7,14.7,29.90,ENE,67,0.0,-999.0,33,-99.99,,,0.00,Acu-Link.com,2013-05-25 06:43:00,
2013-05-25 00:58:00,41.4,15.2,29.90,ENE,67,0.0,-999.0,34,-99.99,,,0.00,Acu-Link.com,2013-05-25 06:58:00,
2013-05-25 01:14:00,41.4,15.2,29.90,ENE,67,0.0,-999.0,34,-99.99,,,0.00,Acu-Link.com,2013-05-25 07:14:00,
2013-05-25 01:29:00,39.0,16.8,29.89,ENE,67,0.0,-999.0,40,-99.99,,,0.00,Acu-Link.com,2013-05-25 07:29:00,
2013-05-25 01:44:00,37.9,18.5,29.90,ENE,67,0.0,-999.0,45,-99.99,,,0.00,Acu-Link.com,2013-05-25 07:44:00,
2013-05-25 01:59:00,36.5,17.7,29.89,ENE,67,2.2,-999.0,46,-99.99,,,0.00,Acu-Link.com,2013-05-25 07:59:00,
2013-05-25 02:14:00,36.7,16.9,29.89,ENE,67,2.2,-999.0,44,-99.99,,,0.00,Acu-Link.com,2013-05-25 08:14:00,
2013-05-25 02:29:00,36.7,16.9,29.89,ENE,67,1.7,-999.0,44,-99.99,,,0.00,Acu-Link.com,2013-05-25 08:29:00,
2013-05-25 02:44:00,37.0,17.7,29.88,ENE,67,2.2,-999.0,45,-99.99,,,0.00,Acu-Link.com,2013-05-25 08:44:00,
2013-05-25 03:00:00,36.9,18.1,29.88,ENE,67,1.7,-999.0,46,-99.99,,,0.00,Acu-Link.com,2013-05-25 09:00:00,
2013-05-25 03:16:00,36.5,18.7,29.88,ENE,67,2.2,-999.0,48,-99.99,,,0.00,Acu-Link.com,2013-05-25 09:16:00,
2013-05-25 03:31:00,36.3,19.5,29.88,ENE,67,1.7,-999.0,50,-99.99,,,0.00,Acu-Link.com,2013-05-25 09:31:00,
2013-05-25 03:46:00,36.7,17.9,29.87,ENE,67,1.1,-999.0,46,-99.99,,,0.00,Acu-Link.com,2013-05-25 09:46:00,
2013-05-25 04:01:00,37.9,16.3,29.88,ENE,67,1.7,-999.0,41,-99.99,,,0.00,Acu-Link.com,2013-05-25 10:01:00,
2013-05-25 04:16:00,37.2,15.7,29.88,ENE,67,1.1,-999.0,41,-99.99,,,0.00,Acu-Link.com,2013-05-25 10:16:00,
2013-05-25 04:31:00,37.4,15.3,29.88,ENE,67,1.1,-999.0,40,-99.99,,,0.00,Acu-Link.com,2013-05-25 10:31:00,
2013-05-25 04:46:00,36.7,15.2,29.88,ENE,67,0.0,-999.0,41,-99.99,,,0.00,Acu-Link.com,2013-05-25 10:46:00,
2013-05-25 05:01:00,37.2,15.1,29.88,ENE,67,0.0,-999.0,40,-99.99,,,0.00,Acu-Link.com,2013-05-25 11:01:00,
2013-05-25 05:17:00,36.9,14.9,29.88,ENE,67,0.0,-999.0,40,-99.99,,,0.00,Acu-Link.com,2013-05-25 11:17:00,
2013-05-25 05:32:00,35.6,14.3,29.89,ENE,67,1.7,-999.0,41,-99.99,,,0.00,Acu-Link.com,2013-05-25 11:32:00,
2013-05-25 05:47:00,35.2,14.4,29.89,ENE,67,0.0,-999.0,42,-99.99,,,0.00,Acu-Link.com,2013-05-25 11:47:00,
2013-05-25 06:02:00,35.2,13.9,29.89,ENE,67,0.0,-999.0,41,-99.99,,,0.00,Acu-Link.com,2013-05-25 12:02:00,
2013-05-25 06:17:00,35.1,14.3,29.89,ENE,67,1.7,-999.0,42,-99.99,,,0.00,Acu-Link.com,2013-05-25 12:17:00,
2013-05-25 06:32:00,36.3,14.3,29.89,ENE,67,1.7,-999.0,40,-99.99,,,0.00,Acu-Link.com,2013-05-25 12:32:00,
2013-05-25 06:47:00,38.8,15.4,29.90,ENE,67,1.7,-999.0,38,-99.99,,,0.00,Acu-Link.com,2013-05-25 12:47:00,
2013-05-25 07:03:00,39.7,16.8,29.91,ENE,67,0.0,-999.0,39,-99.99,,,0.00,Acu-Link.com,2013-05-25 13:03:00,
2013-05-25 07:18:00,41.4,17.7,29.91,ENE,67,1.1,-999.0,38,-99.99,,,0.00,Acu-Link.com,2013-05-25 13:18:00,
2013-05-25 07:33:00,43.5,17.7,29.90,ENE,67,1.7,-999.0,35,-99.99,,,0.00,Acu-Link.com,2013-05-25 13:33:00,
2013-05-25 07:48:00,45.1,20.4,29.91,ENE,67,2.2,-999.0,37,-99.99,,,0.00,Acu-Link.com,2013-05-25 13:48:00,
2013-05-25 08:03:00,46.2,20.1,29.91,ENE,67,2.2,-999.0,35,-99.99,,,0.00,Acu-Link.com,2013-05-25 14:03:00,
2013-05-25 08:18:00,48.7,19.4,29.91,ENE,67,4.2,-999.0,31,-99.99,,,0.00,Acu-Link.com,2013-05-25 14:18:00,
2013-05-25 08:33:00,52.3,20.2,29.91,ENE,67,2.2,-999.0,28,-99.99,,,0.00,Acu-Link.com,2013-05-25 14:33:00,
2013-05-25 08:48:00,55.8,22.3,29.91,ENE,67,2.7,-999.0,27,-99.99,,,0.00,Acu-Link.com,2013-05-25 14:48:00,
2013-05-25 09:04:00,56.8,23.2,29.91,ENE,67,1.1,-999.0,27,-99.99,,,0.00,Acu-Link.com,2013-05-25 15:04:00,
2013-05-25 09:19:00,60.1,21.1,29.91,ENE,67,5.3,-999.0,22,-99.99,,,0.00,Acu-Link.com,2013-05-25 15:19:00,
2013-05-25 09:34:00,57.0,20.6,29.91,ENE,67,1.7,-999.0,24,-99.99,,,0.00,Acu-Link.com,2013-05-25 15:34:00,
2013-05-25 09:49:00,58.1,20.5,29.90,East,90,2.7,-999.0,23,-99.99,,,0.00,Acu-Link.com,2013-05-25 15:49:00,
2013-05-25 10:05:00,57.2,18.7,29.90,East,90,2.7,-999.0,22,-99.99,,,0.00,Acu-Link.com,2013-05-25 16:05:00,
2013-05-25 10:20:00,59.2,23.4,29.90,East,90,1.7,-999.0,25,-99.99,,,0.00,Acu-Link.com,2013-05-25 16:20:00,
2013-05-25 10:35:00,57.9,22.3,29.90,South,180,1.7,-999.0,25,-99.99,,,0.00,Acu-Link.com,2013-05-25 16:35:00,
2013-05-25 10:50:00,60.4,23.5,29.90,ESE,112,7.3,-999.0,24,-99.99,,,0.00,Acu-Link.com,2013-05-25 16:50:00,
2013-05-25 11:05:00,61.0,22.9,29.90,SW,225,1.1,-999.0,23,-99.99,,,0.00,Acu-Link.com,2013-05-25 17:05:00,
2013-05-25 11:20:00,61.0,22.9,29.90,South,180,5.8,-999.0,23,-99.99,,,0.00,Acu-Link.com,2013-05-25 17:20:00,
2013-05-25 11:35:00,60.8,20.6,29.91,South,180,4.2,-999.0,21,-99.99,,,0.00,Acu-Link.com,2013-05-25 17:35:00,
2013-05-25 11:50:00,61.2,21.0,29.91,SSE,157,6.3,-999.0,21,-99.99,,,0.00,Acu-Link.com,2013-05-25 17:50:00,
2013-05-25 12:05:00,62.1,19.4,29.91,West,270,5.3,-999.0,19,-99.99,,,0.00,Acu-Link.com,2013-05-25 18:05:00,
2013-05-25 12:21:00,61.9,21.5,29.91,ESE,112,4.2,-999.0,21,-99.99,,,0.00,Acu-Link.com,2013-05-25 18:21:00,
2013-05-25 12:36:00,63.1,22.5,29.90,WSW,247,5.8,-999.0,21,-99.99,,,0.00,Acu-Link.com,2013-05-25 18:36:00,
2013-05-25 12:51:00,60.8,21.7,29.90,SW,225,3.7,-999.0,22,-99.99,,,0.00,Acu-Link.com,2013-05-25 18:51:00,
2013-05-25 13:06:00,60.3,22.4,29.90,ESE,112,2.7,-999.0,23,-99.99,,,0.00,Acu-Link.com,2013-05-25 19:06:00,
2013-05-25 13:21:00,60.8,21.7,29.90,SW,225,2.7,-999.0,22,-99.99,,,0.00,Acu-Link.com,2013-05-25 19:21:00,
2013-05-25 13:36:00,61.5,21.2,29.89,WSW,247,2.7,-999.0,21,-99.99,,,0.00,Acu-Link.com,2013-05-25 19:36:00,
2013-05-25 13:52:00,62.6,21.0,29.89,South,180,2.2,-999.0,20,-99.99,,,0.00,Acu-Link.com,2013-05-25 19:52:00,
2013-05-25 14:07:00,63.9,25.4,29.90,SSW,202,2.7,-999.0,23,-99.99,,,0.00,Acu-Link.com,2013-05-25 20:07:00,
2013-05-25 14:22:00,62.6,22.1,29.90,SSE,157,7.3,-999.0,21,-99.99,,,0.00,Acu-Link.com,2013-05-25 20:22:00,
2013-05-25 14:37:00,63.5,21.7,29.89,SSW,202,4.2,-999.0,20,-99.99,,,0.00,Acu-Link.com,2013-05-25 20:37:00,
2013-05-25 14:52:00,63.5,22.9,29.89,ESE,112,3.2,-999.0,21,-99.99,,,0.00,Acu-Link.com,2013-05-25 20:52:00,
2013-05-25 15:07:00,63.1,22.5,29.90,ESE,112,7.3,-999.0,21,-99.99,,,0.00,Acu-Link.com,2013-05-25 21:07:00,
2013-05-25 15:22:00,64.0,22.1,29.88,WSW,247,4.7,-999.0,20,-99.99,,,0.00,Acu-Link.com,2013-05-25 21:22:00,
2013-05-25 15:37:00,63.5,21.7,29.89,East,90,5.3,-999.0,20,-99.99,,,0.00,Acu-Link.com,2013-05-25 21:37:00,
2013-05-25 15:52:00,64.2,23.5,29.89,ESE,112,4.7,-999.0,21,-99.99,,,0.00,Acu-Link.com,2013-05-25 21:52:00,
2013-05-25 16:08:00,62.6,17.2,29.89,SSE,157,8.9,-999.0,17,-99.99,,,0.00,Acu-Link.com,2013-05-25 22:08:00,
2013-05-25 16:23:00,62.2,16.9,29.88,South,180,5.8,-999.0,17,-99.99,,,0.00,Acu-Link.com,2013-05-25 22:23:00,
2013-05-25 16:38:00,61.7,17.8,29.89,ESE,112,4.2,-999.0,18,-99.99,,,0.00,Acu-Link.com,2013-05-25 22:38:00,
2013-05-25 16:53:00,61.9,17.9,29.88,East,90,2.7,-999.0,18,-99.99,,,0.00,Acu-Link.com,2013-05-25 22:53:00,
2013-05-25 17:08:00,62.2,19.4,29.88,WSW,247,3.7,-999.0,19,-99.99,,,0.00,Acu-Link.com,2013-05-25 23:08:00,
2013-05-25 17:23:00,60.6,18.1,29.88,ESE,112,4.2,-999.0,19,-99.99,,,0.00,Acu-Link.com,2013-05-25 23:23:00,
2013-05-25 17:38:00,59.4,20.6,29.88,ESE,112,1.1,-999.0,22,-99.99,,,0.00,Acu-Link.com,2013-05-25 23:38:00,
2013-05-25 17:53:00,59.7,18.6,29.88,ENE,67,4.2,-999.0,20,-99.99,,,0.00,Acu-Link.com,2013-05-25 23:53:00,
2013-05-25 18:08:00,60.8,22.8,29.87,ENE,67,2.7,-999.0,23,-99.99,,,0.00,Acu-Link.com,2013-05-26 00:08:00,
2013-05-25 18:24:00,58.5,18.7,29.88,SW,225,2.7,-999.0,21,-99.99,,,0.00,Acu-Link.com,2013-05-26 00:24:00,
2013-05-25 18:39:00,56.7,19.3,29.88,South,180,2.2,-999.0,23,-99.99,,,0.00,Acu-Link.com,2013-05-26 00:39:00,
2013-05-25 18:54:00,55.0,19.8,29.87,South,180,3.2,-999.0,25,-99.99,,,0.00,Acu-Link.com,2013-05-26 00:54:00,
2013-05-25 19:09:00,54.3,19.2,29.88,ESE,112,2.2,-999.0,25,-99.99,,,0.00,Acu-Link.com,2013-05-26 01:09:00,
2013-05-25 19:24:00,53.6,18.6,29.87,ESE,112,3.7,-999.0,25,-99.99,,,0.00,Acu-Link.com,2013-05-26 01:24:00,
2013-05-25 19:39:00,52.7,16.9,29.88,ESE,112,1.7,-999.0,24,-99.99,,,0.00,Acu-Link.com,2013-05-26 01:39:00,
2013-05-25 19:54:00,51.3,18.5,29.88,ESE,112,2.2,-999.0,27,-99.99,,,0.00,Acu-Link.com,2013-05-26 01:54:00,
2013-05-25 20:09:00,50.0,19.0,29.88,ESE,112,1.7,-999.0,29,-99.99,,,0.00,Acu-Link.com,2013-05-26 02:09:00,
2013-05-25 20:24:00,49.1,17.4,29.88,ESE,112,0.0,-999.0,28,-99.99,,,0.00,Acu-Link.com,2013-05-26 02:24:00,
2013-05-25 20:40:00,48.9,17.2,29.88,ESE,112,1.1,-999.0,28,-99.99,,,0.00,Acu-Link.com,2013-05-26 02:40:00,
2013-05-25 20:55:00,48.6,17.0,29.88,ESE,112,2.2,-999.0,28,-99.99,,,0.00,Acu-Link.com,2013-05-26 02:55:00,
2013-05-25 21:10:00,51.1,23.0,29.88,ESE,112,1.7,-999.0,33,-99.99,,,0.00,Acu-Link.com,2013-05-26 03:10:00,
2013-05-25 21:25:00,54.0,23.3,29.87,ESE,112,1.7,-999.0,30,-99.99,,,0.00,Acu-Link.com,2013-05-26 03:25:00,
2013-05-25 21:40:00,52.9,24.6,29.88,ESE,112,1.1,-999.0,33,-99.99,,,0.00,Acu-Link.com,2013-05-26 03:40:00,
2013-05-25 21:55:00,54.5,25.3,29.91,ESE,112,1.1,-999.0,32,-99.99,,,0.00,Acu-Link.com,2013-05-26 03:55:00,
2013-05-25 22:10:00,53.6,25.9,29.91,ESE,112,0.0,-999.0,34,-99.99,,,0.00,Acu-Link.com,2013-05-26 04:10:00,
2013-05-25 22:25:00,52.7,25.1,29.91,ESE,112,0.0,-999.0,34,-99.99,,,0.00,Acu-Link.com,2013-05-26 04:25:00,
2013-05-25 22:40:00,52.3,24.1,29.92,ESE,112,1.7,-999.0,33,-99.99,,,0.00,Acu-Link.com,2013-05-26 04:40:00,
2013-05-25 22:55:00,51.6,23.5,29.91,ESE,112,0.0,-999.0,33,-99.99,,,0.00,Acu-Link.com,2013-05-26 04:55:00,
2013-05-25 23:11:00,50.7,21.2,29.90,ESE,112,0.0,-999.0,31,-99.99,,,0.00,Acu-Link.com,2013-05-26 05:11:00,
2013-05-25 23:26:00,47.3,19.7,29.89,ESE,112,0.0,-999.0,33,-99.99,,,0.00,Acu-Link.com,2013-05-26 05:26:00,
2013-05-25 23:41:00,46.0,17.1,29.88,ESE,112,1.1,-999.0,31,-99.99,,,0.00,Acu-Link.com,2013-05-26 05:41:00,
2013-05-25 23:56:00,45.1,16.3,29.88,ESE,112,0.0,-999.0,31,-99.99,,,0.00,Acu-Link.com,2013-05-26 05:56:00,